Monday, December 17, 2018, 11:02 AM GMT
Back to Local

CWSD, Summerside Automatic Weather Reporting System

Location: , , Canada Lat: 46.433
Local Time: 11:02 AM GMT (11:02 GMT) Lon: -63.85
Time Zone: GMT Elev: 78 ft

Show me the last for .
Show Coded

Time T Td Feel RH Dir Speed Gust Alt SLP Vis Weather Sky Remarks
2018-12-17 10:00 29 25 20 84 120° 10 - - 29.87 0 None
2018-12-17 08:00 28 24 21 84 130° 6 - - 29.93 0 None
2018-12-17 07:00 28 24 19 83 120° 9 - - 29.97 0 None
2018-12-17 06:00 28 23 18 83 120° 10 - - 30.01 0 None
2018-12-17 05:00 28 23 18 82 120° 12 - - 30.04 0 None
2018-12-17 04:00 28 23 19 82 130° 9 - - 30.08 0 None
2018-12-17 03:00 28 24 19 82 120° 10 - - 30.11 0 None
2018-12-17 02:00 27 26 18 93 110° 9 - - 30.13 0 None
2018-12-17 01:00 25 22 - 89 - Calm - - 30.15 0 None
2018-12-17 00:00 27 24 - 90 - Calm - - 30.16 0 None
2018-12-16 23:00 26 24 19 92 70° 6 - - 30.17 0 None
2018-12-16 22:00 26 23 21 86 70° 5 - - 30.19 0 None
2018-12-16 21:00 30 25 - 83 - Calm - - 30.19 0 None
2018-12-16 20:00 31 25 - 75 80° 1 - - 30.18 0 None
2018-12-16 19:00 31 25 28 76 30° 3 - - 30.18 0 None
2018-12-16 18:00 33 25 27 71 40° 8 - - 30.16 0 None
2018-12-16 17:00 34 25 27 69 30° 8 - - 30.17 0 None
2018-12-16 16:00 35 26 28 70 10° 8 - - 30.19 0 None
2018-12-16 15:00 33 25 27 72 340° 7 - - 30.21 0 None
2018-12-16 14:00 31 25 25 77 330° 7 - - 30.22 0 None
2018-12-16 13:00 28 24 21 84 310° 7 - - 30.21 0 None
2018-12-16 12:00 26 24 20 88 280° 6 - - 30.21 0 None

Support USWX by starting your Amazon purchase here.